This is the latest recevied weather packets stored in our database for station/object TG9ADI-20. If no packets are shown the sender has not sent any weather packets the latest 10 day(s).
| Time | Temp. | Humidity | Pressure | Rain* | Wind** | Luminosity | Snow |
|---|---|---|---|---|---|---|---|
| 1777799207 | 19.44° C | 88% | 1015 hPa | 0 mm | - | - | - |
| 1777798607 | 16.67° C | 96% | 1015 hPa | 0 mm | - | - | - |
| 1777798006 | 16.67° C | 96% | 1015 hPa | 0 mm | - | - | - |
| 1777797406 | 17.22° C | 96% | 1015 hPa | 0 mm | - | - | - |
| 1777796805 | 17.78° C | 95% | 1014 hPa | 0 mm | - | - | - |
| 1777796204 | 18.89° C | 93% | 1014 hPa | 0 mm | - | - | - |
| 1777795604 | 17.22° C | 96% | 1014 hPa | 0 mm | - | - | - |
| 1777795003 | 17.22° C | 96% | 1014 hPa | 0 mm | - | - | - |
| 1777794403 | 17.78° C | 95% | 1015 hPa | 0 mm | - | - | - |
| 1777793802 | 18.89° C | 94% | 1015 hPa | 0 mm | - | - | - |
| 1777793201 | 18.89° C | 94% | 1015 hPa | 0 mm | - | - | - |
| 1777792601 | 20° C | 91% | 1015 hPa | 0 mm | - | - | - |
| 1777792000 | 17.78° C | 93% | 1015 hPa | 0 mm | - | - | - |
| 1777791399 | 18.33° C | 92% | 1015 hPa | 0 mm | - | - | - |
| 1777790799 | 19.44° C | 88% | 1015 hPa | 0 mm | - | - | - |
| 1777790198 | 20.56° C | 83% | 1015 hPa | 0 mm | - | - | - |
| 1777789598 | 17.78° C | 95% | 1016 hPa | 0 mm | - | - | - |
| 1777788997 | 18.33° C | 94% | 1016 hPa | 0 mm | - | - | - |
| 1777788396 | 18.89° C | 93% | 1016 hPa | 0 mm | - | - | - |
| 1777787796 | 20° C | 89% | 1016 hPa | 0 mm | - | - | - |
| 1777787195 | 19.44° C | 89% | 1016 hPa | 0 mm | - | - | - |
| 1777786594 | 19.44° C | 89% | 1016 hPa | 0 mm | - | - | - |
| 1777785994 | 19.44° C | 89% | 1016 hPa | 0 mm | - | - | - |
| 1777785393 | 20° C | 88% | 1016 hPa | 0 mm | - | - | - |
| 1777784792 | 20° C | 88% | 1016 hPa | 0 mm | - | - | - |
* Rain latest hour (hover to see other rain measurements)
** Current wind speed in m/s (hover to see current wind gust speed)